Time;durP1;ratioP1;P1;durP2;ratioP2;P2;SDS_P1;SDS_P2;PMS_P1;PMS_P2;Temp;Humidity;BMP_temperature;BMP_pressure;BME280_temperature;BME280_humidity;BME280_pressure;Samples;Min_cycle;Max_cycle;Signal;HPM_P1;HPM_P2
2024/03/15 00:00:25;;;;;;;2.00;1.80;;;;;;;19.41;51.76;97116.22;5023072;28;20601;-26
2024/03/15 00:02:52;;;;;;;2.03;1.63;;;;;;;19.42;51.83;97119.66;5027798;28;20194;-25
2024/03/15 00:05:20;;;;;;;2.13;1.70;;;;;;;19.40;51.81;97114.50;5029140;28;20225;-27
2024/03/15 00:07:47;;;;;;;1.60;1.40;;;;;;;19.42;51.82;97122.19;5031227;28;20202;-27
2024/03/15 00:10:14;;;;;;;2.03;1.83;;;;;;;19.41;51.83;97125.53;5028814;28;20225;-25
2024/03/15 00:12:41;;;;;;;1.70;1.60;;;;;;;19.41;51.75;97120.44;5028017;28;20197;-25
2024/03/15 00:15:08;;;;;;;2.00;1.80;;;;;;;19.41;51.81;97126.41;5031857;28;20257;-25
2024/03/15 00:17:36;;;;;;;2.00;1.77;;;;;;;19.42;51.66;97124.75;5031537;28;20205;-26
2024/03/15 00:20:02;;;;;;;2.80;1.70;;;;;;;19.41;51.85;97123.88;5025900;28;20633;-25
2024/03/15 00:22:29;;;;;;;2.43;1.90;;;;;;;19.41;51.79;97125.53;5031281;28;20291;-25
2024/03/15 00:24:56;;;;;;;1.60;1.50;;;;;;;19.42;51.74;97119.66;5029195;28;20217;-25
2024/03/15 00:27:22;;;;;;;2.00;1.80;;;;;;;19.43;51.58;97123.91;5022994;28;20202;-25
2024/03/15 00:29:49;;;;;;;1.80;1.70;;;;;;;19.43;51.69;97127.34;5030291;28;20656;-25
2024/03/15 00:32:16;;;;;;;1.67;1.57;;;;;;;19.44;51.90;97123.09;5029307;28;20335;-25
2024/03/15 00:34:43;;;;;;;2.00;1.90;;;;;;;19.45;51.79;97118.03;5031116;28;20221;-25
2024/03/15 00:37:09;;;;;;;1.90;1.80;;;;;;;19.44;51.73;97123.97;5027903;28;20193;-25
2024/03/15 00:39:36;;;;;;;1.90;1.80;;;;;;;19.31;51.90;97098.06;5026317;28;20194;-26
2024/03/15 00:42:03;;;;;;;2.03;1.87;;;;;;;19.44;51.70;97120.53;5029900;28;20213;-25
2024/03/15 00:44:29;;;;;;;1.90;1.70;;;;;;;19.43;51.63;97122.25;5026595;28;20205;-26
2024/03/15 00:46:56;;;;;;;2.20;2.00;;;;;;;19.42;51.79;97117.94;5029431;28;20261;-25
2024/03/15 00:49:23;;;;;;;2.07;1.57;;;;;;;19.42;51.73;97119.66;5031327;28;20209;-26
2024/03/15 00:51:49;;;;;;;4.50;2.00;;;;;;;19.43;51.79;97118.81;5031204;28;20249;-25
2024/03/15 00:54:16;;;;;;;2.77;2.07;;;;;;;19.41;51.72;97113.66;5027928;28;20288;-25
2024/03/15 00:56:43;;;;;;;1.90;1.80;;;;;;;19.41;51.73;97116.22;5026670;28;20198;-26
2024/03/15 00:59:09;;;;;;;1.70;1.60;;;;;;;19.42;51.75;97114.56;5027059;28;20206;-25
2024/03/15 01:01:38;;;;;;;1.93;1.70;;;;;;;19.40;51.57;97113.63;5029061;28;20233;-25
2024/03/15 01:04:05;;;;;;;1.80;1.70;;;;;;;19.40;51.93;97105.97;5025477;28;20217;-26
2024/03/15 01:06:32;;;;;;;1.77;1.67;;;;;;;19.41;51.73;97105.16;5024172;28;20256;-25
2024/03/15 01:08:58;;;;;;;2.00;1.80;;;;;;;19.41;51.94;97105.16;5028782;28;20284;-25
2024/03/15 01:11:25;;;;;;;1.80;1.70;;;;;;;19.40;51.85;97100.88;5033240;28;20668;-25
2024/03/15 01:13:57;;;;;;;1.87;1.70;;;;;;;19.41;51.37;97100.94;5032477;28;20208;-26
2024/03/15 01:16:26;;;;;;;2.00;1.80;;;;;;;19.42;51.77;97099.25;5032193;28;20608;-26
2024/03/15 01:18:54;;;;;;;1.80;1.70;;;;;;;19.42;51.77;97096.72;5026941;28;20261;-25
2024/03/15 01:21:21;;;;;;;1.70;1.60;;;;;;;19.43;51.65;97101.84;5032074;28;20228;-25
2024/03/15 01:23:51;;;;;;;2.27;1.90;;;;;;;19.45;51.78;97101.91;5030977;28;20193;-25
2024/03/15 01:26:18;;;;;;;2.00;1.80;;;;;;;19.43;51.84;97101.84;5034607;28;20213;-25
2024/03/15 01:28:44;;;;;;;2.53;1.90;;;;;;;19.42;51.86;97099.25;5024494;28;20252;-26
2024/03/15 01:31:11;;;;;;;1.70;1.60;;;;;;;19.35;51.81;97089.69;5028369;28;20669;-28
2024/03/15 01:33:37;;;;;;;1.87;1.73;;;;;;;19.43;51.92;97098.44;5029223;28;20205;-25
2024/03/15 01:36:04;;;;;;;1.87;1.77;;;;;;;19.43;51.87;97104.41;5034569;28;20218;-25
2024/03/15 01:38:31;;;;;;;1.93;1.70;;;;;;;19.42;51.67;97100.09;5034002;28;20623;-25
2024/03/15 01:40:58;;;;;;;1.80;1.70;;;;;;;19.42;51.80;97100.09;5028095;28;20280;-25
2024/03/15 01:43:25;;;;;;;1.80;1.70;;;;;;;19.41;51.88;97103.47;5030840;28;20205;-25
2024/03/15 01:45:51;;;;;;;1.83;1.67;;;;;;;19.40;51.93;97096.66;5032512;28;20198;-25
2024/03/15 01:48:18;;;;;;;1.80;1.70;;;;;;;19.41;51.81;97110.25;5033069;28;20244;-25
2024/03/15 01:50:47;;;;;;;1.60;1.50;;;;;;;19.41;51.79;97102.59;5037150;28;20309;-27
2024/03/15 01:53:14;;;;;;;1.90;1.80;;;;;;;19.41;51.83;97100.06;5034212;28;20205;-25
2024/03/15 01:55:42;;;;;;;1.90;1.80;;;;;;;19.40;51.89;97101.75;5043830;28;20239;-25
2024/03/15 01:58:09;;;;;;;1.90;1.80;;;;;;;19.40;51.72;97099.22;5033094;28;20201;-25
2024/03/15 02:00:38;;;;;;;1.43;1.33;;;;;;;19.38;51.75;97090.66;5029674;28;20226;-26
2024/03/15 02:03:05;;;;;;;1.73;1.63;;;;;;;19.40;51.92;97095.78;5047395;28;20209;-25
2024/03/15 02:05:32;;;;;;;1.80;1.70;;;;;;;19.41;51.97;97088.19;5033101;28;20635;-26
2024/03/15 02:07:59;;;;;;;1.57;1.47;;;;;;;19.43;51.53;97090.78;5032716;28;20198;-26
2024/03/15 02:10:26;;;;;;;1.77;1.67;;;;;;;19.44;51.93;97102.69;5025080;28;20222;-25
2024/03/15 02:12:53;;;;;;;1.80;1.70;;;;;;;19.44;51.84;97092.50;5032354;28;20229;-25
2024/03/15 02:15:20;;;;;;;1.60;1.50;;;;;;;19.42;51.76;97089.91;5033445;28;20720;-25
2024/03/15 02:17:47;;;;;;;1.87;1.77;;;;;;;19.42;51.90;97089.91;5029482;28;20669;-25
2024/03/15 02:20:17;;;;;;;2.53;1.60;;;;;;;19.43;51.84;97095.88;5031644;28;20244;-25
2024/03/15 02:22:44;;;;;;;1.60;1.50;;;;;;;19.42;51.83;97089.06;5033210;28;20263;-25
2024/03/15 02:25:12;;;;;;;2.20;1.70;;;;;;;19.41;51.92;97095.84;5024658;28;20205;-25
2024/03/15 02:27:39;;;;;;;1.90;1.70;;;;;;;19.41;51.79;97095.84;5031580;28;20202;-25
2024/03/15 02:30:06;;;;;;;1.63;1.53;;;;;;;19.41;51.85;97100.06;5033476;28;20202;-25
2024/03/15 02:32:33;;;;;;;1.77;1.67;;;;;;;19.38;51.93;97095.75;5033389;28;20644;-25
2024/03/15 02:34:59;;;;;;;1.70;1.60;;;;;;;19.40;51.78;97106.84;5024476;28;20208;-25
2024/03/15 02:37:36;;;;;;;2.00;1.80;;;;;;;19.41;51.97;97100.06;5032296;28;20197;-25
2024/03/15 02:40:03;;;;;;;1.70;1.60;;;;;;;19.41;51.88;97100.06;5033636;28;20672;-27
2024/03/15 02:42:30;;;;;;;2.10;1.90;;;;;;;19.41;51.98;97100.06;5030966;28;20209;-25
2024/03/15 02:44:57;;;;;;;1.90;1.70;;;;;;;19.40;51.93;97106.84;5030458;28;20198;-25
2024/03/15 02:47:25;;;;;;;2.20;1.70;;;;;;;19.40;51.67;97101.75;5033072;28;20280;-26
2024/03/15 02:49:53;;;;;;;1.70;1.50;;;;;;;19.40;51.83;97103.44;5029568;28;20237;-25
2024/03/15 02:52:19;;;;;;;2.17;1.73;;;;;;;19.42;51.68;97104.34;5030562;28;20202;-25
2024/03/15 02:54:46;;;;;;;1.90;1.80;;;;;;;19.42;51.82;97107.75;5032291;28;20646;-25
2024/03/15 02:57:13;;;;;;;1.73;1.63;;;;;;;19.41;51.91;97102.59;5031360;28;20604;-25
2024/03/15 02:59:39;;;;;;;1.80;1.70;;;;;;;19.44;51.51;97108.69;5033240;28;20205;-25
2024/03/15 03:02:08;;;;;;;1.70;1.60;;;;;;;19.44;51.78;97118.88;5030872;28;20229;-25
2024/03/15 03:04:35;;;;;;;1.70;1.60;;;;;;;19.44;51.83;97113.78;5027902;28;20201;-25
2024/03/15 03:07:03;;;;;;;1.67;1.57;;;;;;;19.42;51.85;97112.84;5033194;28;20243;-27
2024/03/15 03:09:31;;;;;;;1.63;1.53;;;;;;;19.42;51.88;97123.03;5031987;28;20229;-25
2024/03/15 03:11:58;;;;;;;1.80;1.70;;;;;;;19.41;51.80;97128.09;5029426;28;20222;-25
2024/03/15 03:14:25;;;;;;;1.80;1.70;;;;;;;19.40;51.84;97122.16;5032991;28;20252;-26
2024/03/15 03:16:51;;;;;;;1.70;1.60;;;;;;;19.41;51.91;97123.00;5032431;28;20471;-25
2024/03/15 03:19:18;;;;;;;1.97;1.53;;;;;;;19.41;51.85;97123.00;5028254;28;20255;-25
2024/03/15 03:21:47;;;;;;;1.70;1.60;;;;;;;19.41;51.59;97118.78;5024790;28;20229;-28
2024/03/15 03:24:14;;;;;;;1.80;1.70;;;;;;;19.41;51.91;97121.31;5032661;28;20239;-25
2024/03/15 03:26:41;;;;;;;1.60;1.50;;;;;;;19.40;51.99;97113.63;5031802;28;20686;-25
2024/03/15 03:29:08;;;;;;;2.40;1.83;;;;;;;19.40;51.84;97121.28;5032373;28;20293;-25
2024/03/15 03:31:35;;;;;;;2.03;1.70;;;;;;;19.41;51.91;97125.53;5026143;28;20730;-26
2024/03/15 03:34:01;;;;;;;1.70;1.60;;;;;;;19.39;51.43;97114.47;5029194;28;20206;-26
2024/03/15 03:36:28;;;;;;;1.70;1.60;;;;;;;19.40;51.78;97128.91;5032236;28;20225;-25
2024/03/15 03:38:55;;;;;;;1.70;1.60;;;;;;;19.39;51.77;97122.09;5031936;28;20206;-25
2024/03/15 03:41:23;;;;;;;1.73;1.60;;;;;;;19.43;51.69;97126.47;5025872;28;20290;-25
2024/03/15 03:43:49;;;;;;;1.50;1.40;;;;;;;19.43;51.83;97121.38;5023741;28;20619;-26
2024/03/15 03:46:16;;;;;;;1.80;1.67;;;;;;;19.43;51.88;97123.91;5030400;28;20289;-25
2024/03/15 03:48:43;;;;;;;2.77;1.90;;;;;;;19.43;51.80;97123.91;5026558;28;20565;-25
2024/03/15 03:51:10;;;;;;;1.67;1.57;;;;;;;19.43;51.81;97132.44;5029606;28;20221;-25
2024/03/15 03:53:36;;;;;;;1.80;1.70;;;;;;;19.40;51.89;97129.78;5028122;28;20202;-25
2024/03/15 03:56:03;;;;;;;1.70;1.60;;;;;;;19.43;51.96;97139.22;5023917;28;20215;-25
2024/03/15 03:58:30;;;;;;;1.77;1.67;;;;;;;19.42;51.93;97140.03;5028472;28;20255;-25
2024/03/15 04:00:58;;;;;;;1.90;1.63;;;;;;;19.41;51.91;97133.19;5025961;28;20785;-25
2024/03/15 04:03:27;;;;;;;1.50;1.40;;;;;;;19.40;51.81;97142.53;5030473;28;20204;-25
2024/03/15 04:05:54;;;;;;;1.50;1.40;;;;;;;19.41;51.86;97138.28;5025487;28;20657;-26
2024/03/15 04:08:21;;;;;;;1.80;1.70;;;;;;;19.40;51.71;97134.00;5026866;28;20205;-25
2024/03/15 04:10:48;;;;;;;1.63;1.53;;;;;;;19.40;51.95;97137.44;5028045;28;20217;-25
2024/03/15 04:13:16;;;;;;;1.70;1.60;;;;;;;19.40;51.74;97137.44;5026871;28;20202;-26
2024/03/15 04:15:46;;;;;;;1.70;1.60;;;;;;;19.41;51.72;97135.72;5028699;28;20241;-25
2024/03/15 04:18:16;;;;;;;1.50;1.40;;;;;;;19.42;51.68;97140.88;5025754;28;20275;-25
2024/03/15 04:20:44;;;;;;;1.63;1.53;;;;;;;19.43;51.88;97139.22;5027888;28;20304;-31
2024/03/15 04:23:13;;;;;;;1.63;1.53;;;;;;;19.45;51.73;97137.59;5029125;28;20244;-29
2024/03/15 04:25:40;;;;;;;1.70;1.60;;;;;;;19.45;51.77;97133.31;5026987;28;20281;-27
2024/03/15 04:28:08;;;;;;;1.73;1.63;;;;;;;19.41;51.68;97130.63;5022099;28;20201;-25
2024/03/15 04:30:35;;;;;;;1.87;1.77;;;;;;;19.47;51.68;97139.34;5025980;28;20213;-25
2024/03/15 04:33:01;;;;;;;1.80;1.70;;;;;;;19.48;51.65;97133.41;5018209;28;20725;-25
2024/03/15 04:35:29;;;;;;;1.70;1.60;;;;;;;19.48;51.61;97138.53;5027057;28;20201;-28
2024/03/15 04:37:56;;;;;;;1.93;1.83;;;;;;;19.49;51.67;97139.41;5027163;28;20225;-25
2024/03/15 04:40:25;;;;;;;1.90;1.80;;;;;;;19.48;51.70;97135.97;5023986;28;20217;-25
2024/03/15 04:42:52;;;;;;;1.80;1.70;;;;;;;19.49;51.84;97132.63;5030179;28;20202;-25
2024/03/15 04:45:20;;;;;;;1.90;1.80;;;;;;;19.48;51.61;97138.53;5027194;28;20202;-25
2024/03/15 04:47:47;;;;;;;1.90;1.70;;;;;;;19.47;51.80;97135.91;5031579;28;20198;-25
2024/03/15 04:50:15;;;;;;;2.30;2.10;;;;;;;19.45;51.60;97140.97;5030690;28;20217;-26
2024/03/15 04:52:42;;;;;;;1.53;1.43;;;;;;;19.45;51.67;97135.03;5034021;28;20205;-25
2024/03/15 04:55:09;;;;;;;2.07;1.80;;;;;;;19.46;51.86;97140.19;5028608;28;20233;-25
2024/03/15 04:57:39;;;;;;;1.77;1.67;;;;;;;19.45;51.71;97135.03;5028731;28;20244;-25
2024/03/15 05:00:18;;;;;;;1.70;1.60;;;;;;;19.43;51.85;97134.09;5034221;28;20201;-25
2024/03/15 05:02:49;;;;;;;2.30;1.90;;;;;;;19.41;51.86;97133.19;5027479;28;20213;-26
2024/03/15 05:05:20;;;;;;;1.80;1.70;;;;;;;19.43;51.88;97141.75;5029915;28;20217;-25
2024/03/15 05:07:48;;;;;;;1.70;1.60;;;;;;;19.44;51.83;97146.03;5034591;28;20244;-25
2024/03/15 05:10:15;;;;;;;1.90;1.77;;;;;;;19.43;51.93;97150.28;5032468;28;20727;-26
2024/03/15 05:12:43;;;;;;;1.73;1.63;;;;;;;19.37;51.78;97136.47;5027524;28;20203;-28
2024/03/15 05:15:10;;;;;;;3.07;1.70;;;;;;;19.42;51.73;97147.69;5028505;28;20209;-25
2024/03/15 05:17:38;;;;;;;1.80;1.70;;;;;;;19.43;51.78;97150.28;5032504;28;20218;-25
2024/03/15 05:20:08;;;;;;;1.57;1.47;;;;;;;19.43;51.83;97149.41;5033433;28;20220;-28
2024/03/15 05:22:34;;;;;;;1.77;1.67;;;;;;;19.42;51.82;97148.53;5032856;28;20264;-25
2024/03/15 05:25:03;;;;;;;1.80;1.70;;;;;;;19.42;51.85;97151.06;5031203;28;20205;-26
2024/03/15 05:27:32;;;;;;;1.80;1.70;;;;;;;19.42;52.03;97147.69;5031486;28;20201;-25
2024/03/15 05:30:00;;;;;;;1.87;1.77;;;;;;;19.43;51.87;97157.03;5033046;28;20637;-26
2024/03/15 05:32:28;;;;;;;1.70;1.60;;;;;;;19.41;51.64;97149.34;5029051;28;20209;-25
2024/03/15 05:34:54;;;;;;;1.80;1.70;;;;;;;19.42;51.56;97150.22;5032230;28;20255;-25
2024/03/15 05:37:21;;;;;;;1.90;1.80;;;;;;;19.42;51.68;97153.63;5032573;28;20704;-25
2024/03/15 05:39:48;;;;;;;1.70;1.57;;;;;;;19.43;51.89;97157.91;5031694;28;20233;-25
2024/03/15 05:42:14;;;;;;;1.83;1.73;;;;;;;19.41;51.86;97151.91;5032655;28;20700;-25
2024/03/15 05:44:41;;;;;;;1.83;1.73;;;;;;;19.42;51.71;97155.31;5032332;28;20208;-25
2024/03/15 05:47:08;;;;;;;1.80;1.70;;;;;;;19.42;51.83;97156.16;5032629;28;20225;-25
2024/03/15 05:49:35;;;;;;;4.70;1.63;;;;;;;19.43;51.81;97159.59;5032617;28;20251;-25
2024/03/15 05:52:02;;;;;;;1.60;1.50;;;;;;;19.44;51.73;97158.75;5030769;28;20221;-26
2024/03/15 05:54:29;;;;;;;2.40;1.60;;;;;;;19.42;51.95;97162.97;5034083;28;20208;-26
2024/03/15 05:56:56;;;;;;;1.60;1.50;;;;;;;19.43;51.70;97172.34;5028159;28;20225;-25
2024/03/15 05:59:22;;;;;;;3.93;2.40;;;;;;;19.43;50.43;97173.22;5031680;28;20205;-25
2024/03/15 06:04:26;;;;;;;4.77;3.30;;;;;;;19.44;47.54;97176.59;4969185;28;20266;-25
2024/03/15 06:06:53;;;;;;;3.70;3.40;;;;;;;19.44;47.03;97177.47;4978050;28;20200;-25
2024/03/15 06:09:20;;;;;;;3.80;3.50;;;;;;;19.45;47.06;97178.34;4975098;28;20206;-25
2024/03/15 06:11:48;;;;;;;4.20;3.90;;;;;;;19.44;46.71;97177.47;4983862;28;20211;-25
2024/03/15 06:14:14;;;;;;;4.37;4.00;;;;;;;19.39;46.58;97165.41;4974505;28;20594;-25
2024/03/15 06:16:41;;;;;;;4.47;4.07;;;;;;;19.45;47.48;97180.91;4973374;28;20215;-25
2024/03/15 06:19:08;;;;;;;6.33;4.13;;;;;;;19.44;47.09;97177.47;4974255;28;20212;-25
2024/03/15 06:21:35;;;;;;;4.67;4.27;;;;;;;19.45;47.19;97175.81;4973777;28;20212;-25
2024/03/15 06:24:01;;;;;;;8.13;4.73;;;;;;;19.44;46.99;97172.38;4973666;28;20220;-29
2024/03/15 06:26:28;;;;;;;4.97;4.50;;;;;;;19.44;46.81;97169.84;4972370;28;20199;-26
2024/03/15 06:28:54;;;;;;;5.17;4.60;;;;;;;19.44;46.41;97168.94;4973620;28;20203;-25
2024/03/15 06:31:21;;;;;;;5.10;4.60;;;;;;;19.42;46.07;97171.44;4973312;28;20206;-25
2024/03/15 06:33:49;;;;;;;5.30;4.80;;;;;;;19.41;45.61;97172.28;4970299;28;20306;-26
2024/03/15 06:36:18;;;;;;;5.27;4.77;;;;;;;19.42;45.22;97170.59;4972521;28;20608;-32
2024/03/15 06:41:40;;;;;;;4.80;4.40;;;;;;;19.40;46.37;97185.84;4973737;28;20658;-25
2024/03/15 06:49:33;;;;;;;4.60;4.17;;;;;;;19.39;48.07;97191.75;4962811;28;20286;-26
2024/03/15 06:54:45;;;;;;;4.33;3.93;;;;;;;19.39;48.57;97185.81;4966455;28;20755;-26
2024/03/15 06:57:11;;;;;;;3.73;3.43;;;;;;;19.39;48.85;97194.28;4966871;28;20266;-26
2024/03/15 06:59:39;;;;;;;4.40;4.10;;;;;;;19.40;47.82;97198.59;4970235;28;20196;-26
2024/03/15 07:02:08;;;;;;;4.80;4.30;;;;;;;19.39;47.27;97188.34;4970134;28;20235;-25
2024/03/15 07:04:35;;;;;;;5.10;4.60;;;;;;;19.38;47.71;97197.66;4985958;28;20203;-25
2024/03/15 07:07:01;;;;;;;5.00;4.60;;;;;;;19.38;48.04;97195.13;4989468;28;20198;-32
2024/03/15 07:09:28;;;;;;;4.93;4.37;;;;;;;19.38;48.49;97192.56;4985971;28;20214;-30
2024/03/15 07:11:58;;;;;;;6.37;4.27;;;;;;;19.38;48.58;97195.13;4980725;28;20221;-27
2024/03/15 07:14:24;;;;;;;4.53;3.80;;;;;;;19.39;48.74;97196.00;4969559;28;20211;-33
2024/03/15 07:16:51;;;;;;;4.57;4.00;;;;;;;19.40;48.85;97190.06;4986429;28;20222;-25
2024/03/15 07:19:20;;;;;;;3.90;3.50;;;;;;;19.41;48.87;97191.78;4988965;28;20291;-26
2024/03/15 07:21:47;;;;;;;4.27;3.87;;;;;;;19.42;49.19;97194.38;4989867;28;20233;-28
2024/03/15 07:24:14;;;;;;;4.23;3.83;;;;;;;19.42;49.41;97199.47;4997225;28;20322;-26
2024/03/15 07:26:41;;;;;;;4.30;3.77;;;;;;;19.42;49.47;97196.09;4997655;28;20670;-28
2024/03/15 07:29:08;;;;;;;3.60;3.30;;;;;;;19.42;49.61;97199.47;4992866;28;20302;-26
2024/03/15 07:31:35;;;;;;;3.57;3.27;;;;;;;19.43;49.77;97203.78;5006427;28;20206;-29
2024/03/15 07:34:01;;;;;;;3.77;3.47;;;;;;;19.42;49.65;97204.59;4994602;28;20234;-28
2024/03/15 07:36:28;;;;;;;3.87;3.47;;;;;;;19.44;49.79;97202.97;4989854;28;20262;-25
2024/03/15 07:38:55;;;;;;;3.30;3.03;;;;;;;19.46;49.69;97213.19;4997320;28;20210;-27
2024/03/15 07:41:27;;;;;;;4.63;3.37;;;;;;;19.46;49.59;97206.44;4998368;28;20583;-29
2024/03/15 07:43:54;;;;;;;3.53;3.20;;;;;;;19.46;49.78;97210.66;4992765;28;20230;-27
2024/03/15 07:46:22;;;;;;;3.43;3.13;;;;;;;19.47;49.85;97209.81;4994260;28;20210;-28
2024/03/15 07:48:49;;;;;;;4.17;3.00;;;;;;;19.47;49.98;97210.69;4998456;28;20210;-26
2024/03/15 07:51:16;;;;;;;4.63;3.40;;;;;;;19.46;49.93;97203.88;4991343;28;20740;-26
2024/03/15 07:53:45;;;;;;;3.43;3.13;;;;;;;19.47;49.86;97210.69;4989116;28;20744;-26
2024/03/15 07:56:12;;;;;;;4.73;3.00;;;;;;;19.48;49.83;97204.78;4990458;28;20293;-27
2024/03/15 07:58:38;;;;;;;2.70;2.50;;;;;;;19.48;50.07;97209.88;4995862;28;20234;-27
2024/03/15 08:01:07;;;;;;;3.73;3.43;;;;;;;19.48;50.07;97207.31;4987945;28;20280;-26
2024/03/15 08:03:36;;;;;;;2.97;2.77;;;;;;;19.49;50.10;97214.19;4985832;28;21245;-32
2024/03/15 08:06:05;;;;;;;3.47;3.10;;;;;;;19.49;50.09;97220.94;4971478;28;20194;-26
2024/03/15 08:08:32;;;;;;;3.47;3.10;;;;;;;19.50;50.05;97209.94;4990572;28;20511;-26
2024/03/15 08:11:00;;;;;;;4.80;3.10;;;;;;;19.50;50.03;97220.13;4991890;28;20213;-26
2024/03/15 08:13:30;;;;;;;3.77;3.43;;;;;;;19.51;50.01;97216.78;4994362;28;20226;-27
2024/03/15 08:16:18;;;;;;;3.30;3.00;;;;;;;19.52;50.33;97215.94;4995879;28;20241;-26
2024/03/15 08:18:47;;;;;;;3.00;2.80;;;;;;;19.53;50.19;97223.66;4986653;28;20641;-31
2024/03/15 08:21:17;;;;;;;4.00;2.90;;;;;;;19.53;50.07;97225.31;4988112;28;20207;-26
2024/03/15 08:23:44;;;;;;;3.73;2.70;;;;;;;19.54;50.33;97220.28;4988591;28;20314;-26
2024/03/15 08:26:12;;;;;;;3.37;2.73;;;;;;;19.54;50.32;97220.28;4988968;28;20293;-25
2024/03/15 08:28:40;;;;;;;3.50;3.20;;;;;;;19.54;50.55;97227.91;4988719;28;20565;-26
2024/03/15 08:31:07;;;;;;;3.30;2.60;;;;;;;19.53;50.34;97226.19;4988612;28;20202;-25
2024/03/15 08:33:34;;;;;;;3.00;2.70;;;;;;;19.53;50.39;97227.88;4998513;28;20219;-25
2024/03/15 08:36:02;;;;;;;3.07;2.77;;;;;;;19.54;49.93;97227.06;4994029;28;20211;-25
2024/03/15 08:38:29;;;;;;;2.70;2.50;;;;;;;19.52;50.52;97215.94;4988811;28;20230;-26
2024/03/15 08:40:56;;;;;;;3.00;2.80;;;;;;;19.52;50.50;97226.16;4988017;28;20673;-27
2024/03/15 08:43:22;;;;;;;3.00;2.60;;;;;;;19.51;50.49;97227.81;4988572;28;20226;-32
2024/03/15 08:45:49;;;;;;;3.57;2.70;;;;;;;19.51;50.19;97227.81;4988722;28;20202;-26
2024/03/15 08:48:17;;;;;;;3.07;2.77;;;;;;;19.51;50.51;97225.25;4993038;28;20206;-26
2024/03/15 08:50:46;;;;;;;3.13;2.83;;;;;;;19.51;50.36;97226.97;4984343;28;20211;-28
2024/03/15 08:53:13;;;;;;;2.70;2.50;;;;;;;19.50;50.42;97221.00;4987302;28;20222;-25
2024/03/15 08:55:41;;;;;;;3.07;2.77;;;;;;;19.51;50.40;97226.97;4993855;28;20210;-25
2024/03/15 08:58:09;;;;;;;2.63;2.30;;;;;;;19.51;50.48;97222.72;4988577;28;20230;-31
2024/03/15 09:00:38;;;;;;;2.93;2.60;;;;;;;19.51;50.54;97224.44;4984996;28;20591;-25
2024/03/15 09:03:09;;;;;;;3.80;2.73;;;;;;;19.53;50.31;97225.31;4976407;28;20242;-30
2024/03/15 09:05:38;;;;;;;3.27;2.63;;;;;;;19.54;50.48;97230.47;4960375;28;20199;-28
2024/03/15 09:08:06;;;;;;;3.33;2.60;;;;;;;19.53;50.51;97217.66;4964136;28;20203;-28
2024/03/15 09:10:33;;;;;;;3.17;2.87;;;;;;;19.57;50.51;97222.91;4959332;28;20229;-31
2024/03/15 09:13:00;;;;;;;2.70;2.47;;;;;;;19.59;50.65;97222.97;4969538;28;20270;-27
2024/03/15 09:15:27;;;;;;;9.73;2.80;;;;;;;19.61;50.79;97223.88;4967705;28;20234;-27
2024/03/15 09:17:58;;;;;;;3.43;2.70;;;;;;;19.60;51.00;97224.72;4965803;28;20240;-26
2024/03/15 09:22:58;;;;;;;6.73;2.60;;;;;;;19.60;50.89;97227.25;4960203;28;20228;-27
2024/03/15 09:25:26;;;;;;;2.70;2.47;;;;;;;19.60;50.92;97228.13;4961558;28;20671;-26
2024/03/15 09:27:53;;;;;;;5.77;3.07;;;;;;;19.59;50.75;97231.50;4969027;28;20274;-29
2024/03/15 09:30:26;;;;;;;3.20;2.90;;;;;;;19.59;50.85;97226.38;4968541;28;20688;-30
2024/03/15 09:32:53;;;;;;;4.13;2.40;;;;;;;19.59;50.79;97226.38;4968980;28;20737;-28
2024/03/15 09:35:20;;;;;;;3.83;2.60;;;;;;;19.59;50.80;97223.84;4971895;28;20215;-27
2024/03/15 09:37:50;;;;;;;2.70;2.50;;;;;;;19.58;50.87;97227.22;4973396;28;20570;-27
2024/03/15 09:40:18;;;;;;;2.80;2.60;;;;;;;19.59;50.71;97230.63;4972002;28;20208;-26
2024/03/15 09:42:48;;;;;;;2.63;2.43;;;;;;;19.59;50.62;97238.25;4973247;28;20301;-26
2024/03/15 09:45:18;;;;;;;2.40;2.20;;;;;;;19.59;50.43;97233.16;4970180;28;20204;-25
2024/03/15 09:47:51;;;;;;;3.57;2.60;;;;;;;19.60;50.75;97227.25;4968955;28;20709;-26
2024/03/15 09:50:24;;;;;;;2.37;2.17;;;;;;;19.61;50.84;97229.00;4970687;28;20204;-26
2024/03/15 09:52:55;;;;;;;3.90;2.63;;;;;;;19.62;50.74;97228.16;4974238;28;20259;-29
2024/03/15 09:55:22;;;;;;;2.80;2.40;;;;;;;19.63;50.67;97224.81;4972811;28;20884;-25
2024/03/15 09:57:49;;;;;;;3.40;2.47;;;;;;;19.63;50.73;97218.00;4971033;28;20736;-25
2024/03/15 10:00:17;;;;;;;2.50;2.30;;;;;;;19.65;50.77;97220.59;4972078;28;20318;-26
2024/03/15 10:02:49;;;;;;;2.50;2.30;;;;;;;19.64;50.59;97216.34;4985851;28;20238;-25
2024/03/15 10:05:16;;;;;;;3.03;2.50;;;;;;;19.64;50.85;97212.13;4998818;28;20570;-27
2024/03/15 10:07:43;;;;;;;2.57;2.37;;;;;;;19.65;51.03;97210.41;4991097;28;20584;-34
2024/03/15 10:10:11;;;;;;;2.70;2.13;;;;;;;19.65;51.05;97203.63;4998212;28;20207;-32
2024/03/15 10:12:51;;;;;;;3.20;2.40;;;;;;;19.64;51.02;97206.16;4983854;28;20304;-25
2024/03/15 10:15:21;;;;;;;2.23;2.07;;;;;;;19.64;51.15;97203.59;4984986;28;20199;-28
2024/03/15 10:17:51;;;;;;;2.63;2.40;;;;;;;19.64;51.22;97208.69;4987805;28;20282;-25
2024/03/15 10:20:19;;;;;;;3.70;2.10;;;;;;;19.62;51.26;97207.75;4987489;28;20733;-30
2024/03/15 10:22:45;;;;;;;2.77;2.20;;;;;;;19.61;51.15;97208.59;4989312;28;20223;-38
2024/03/15 10:25:15;;;;;;;2.77;2.20;;;;;;;19.61;50.96;97208.59;4989620;28;20203;-26
2024/03/15 10:27:45;;;;;;;2.60;2.40;;;;;;;19.61;51.07;97208.59;4990247;28;20209;-27
2024/03/15 10:30:16;;;;;;;2.60;2.10;;;;;;;19.61;50.95;97206.03;4989835;28;20207;-25
2024/03/15 10:32:47;;;;;;;2.97;2.27;;;;;;;19.60;50.85;97209.41;4985436;28;20254;-25
2024/03/15 10:35:15;;;;;;;2.60;1.90;;;;;;;19.61;50.84;97204.38;4986475;28;20203;-26
2024/03/15 10:37:42;;;;;;;2.20;2.00;;;;;;;19.63;50.85;97206.97;4985485;28;20219;-26
2024/03/15 10:40:14;;;;;;;2.40;2.20;;;;;;;19.63;50.95;97207.81;4990642;28;20717;-26
2024/03/15 10:42:41;;;;;;;1.93;1.80;;;;;;;19.65;50.88;97205.31;4989878;28;20662;-25
2024/03/15 10:45:11;;;;;;;2.60;2.40;;;;;;;19.66;50.92;97201.97;4989137;28;20199;-25
2024/03/15 10:47:39;;;;;;;2.40;2.20;;;;;;;19.70;54.30;97194.47;4990471;28;20207;-26
2024/03/15 10:50:16;;;;;;;4.40;2.20;;;;;;;19.52;54.67;97159.88;4986838;28;20200;-26
2024/03/15 10:52:52;;;;;;;3.20;2.60;;;;;;;19.77;55.88;97196.38;4998018;28;20226;-28
2024/03/15 10:55:28;;;;;;;3.23;2.40;;;;;;;19.80;55.95;97193.03;4986054;28;20254;-27
2024/03/15 10:57:57;;;;;;;3.40;2.60;;;;;;;19.83;56.26;97196.56;4990248;28;20219;-25
2024/03/15 11:00:26;;;;;;;4.60;2.70;;;;;;;19.86;55.17;97189.00;4990375;28;20198;-25
2024/03/15 11:02:54;;;;;;;2.37;2.17;;;;;;;19.88;55.38;97200.13;4992452;28;20245;-29
2024/03/15 11:05:28;;;;;;;2.90;2.40;;;;;;;19.91;54.68;97195.13;4972269;28;20203;-25
2024/03/15 11:08:08;;;;;;;3.13;2.23;;;;;;;19.90;54.37;97183.16;4988773;28;20428;-27
2024/03/15 11:10:36;;;;;;;4.20;2.47;;;;;;;19.95;54.16;97191.84;4989393;28;20249;-25
2024/03/15 11:13:07;;;;;;;6.10;2.73;;;;;;;19.96;54.42;97196.09;4988978;28;20238;-27
2024/03/15 11:15:34;;;;;;;2.67;2.10;;;;;;;19.99;54.45;97190.25;4989160;28;20721;-26
2024/03/15 11:18:05;;;;;;;3.47;2.53;;;;;;;20.00;54.58;97189.41;4983220;28;20688;-27
2024/03/15 11:20:46;;;;;;;3.90;2.17;;;;;;;20.02;54.79;97190.34;4985967;28;20237;-25
2024/03/15 11:23:17;;;;;;;2.90;2.60;;;;;;;20.02;53.61;97188.63;4988307;28;20391;-26
2024/03/15 11:25:56;;;;;;;8.63;2.60;;;;;;;20.03;53.55;97186.97;4993732;28;20294;-25
2024/03/15 11:28:27;;;;;;;3.03;2.03;;;;;;;20.03;53.59;97184.41;4982050;28;20206;-31
2024/03/15 11:30:54;;;;;;;3.20;2.43;;;;;;;20.02;52.99;97185.25;4953237;28;20709;-28
2024/03/15 11:33:20;;;;;;;6.33;2.87;;;;;;;20.02;52.82;97181.81;4987621;28;20248;-30
2024/03/15 11:35:48;;;;;;;5.40;2.50;;;;;;;19.99;52.79;97186.00;4995585;28;20675;-26
2024/03/15 11:38:16;;;;;;;2.67;2.33;;;;;;;19.98;52.62;97178.28;4987833;28;20226;-26
2024/03/15 11:40:45;;;;;;;7.13;2.50;;;;;;;19.95;51.95;97181.63;4987728;28;20207;-29
2024/03/15 11:43:13;;;;;;;3.03;2.37;;;;;;;19.93;52.46;97170.50;4988605;28;20314;-25
2024/03/15 11:45:41;;;;;;;5.73;2.70;;;;;;;19.91;52.33;97171.28;4990221;28;20203;-26
2024/03/15 11:48:16;;;;;;;3.57;2.30;;;;;;;19.88;52.42;97173.75;4987270;28;20285;-33
2024/03/15 11:50:44;;;;;;;3.40;2.00;;;;;;;19.84;52.35;97164.28;4992321;28;20206;-26
2024/03/15 11:53:14;;;;;;;3.37;2.20;;;;;;;19.85;52.55;97169.44;4970472;28;20289;-26